Time;durP1;ratioP1;P1;durP2;ratioP2;P2;SDS_P1;SDS_P2;PMS_P1;PMS_P2;Temp;Humidity;BMP_temperature;BMP_pressure;BME280_temperature;BME280_humidity;BME280_pressure;Samples;Min_cycle;Max_cycle;Signal;HPM_P1;HPM_P2
2024/02/11 00:02:06;;;;;;;47.43;23.83;;;;;;;7.93;100.00;98446.25;6040174;23;20166;-75
2024/02/11 00:04:32;;;;;;;56.83;24.90;;;;;;;7.95;100.00;98444.03;6041392;23;20173;-75
2024/02/11 00:06:59;;;;;;;48.37;25.03;;;;;;;7.95;100.00;98454.56;6005247;23;20759;-75
2024/02/11 00:09:25;;;;;;;55.17;26.73;;;;;;;7.97;100.00;98454.94;6041369;23;20184;-75
2024/02/11 00:11:52;;;;;;;45.67;25.30;;;;;;;7.98;100.00;98451.19;6041164;23;20195;-75
2024/02/11 00:14:19;;;;;;;45.77;24.80;;;;;;;8.00;100.00;98459.50;6042077;23;20651;-75
2024/02/11 00:16:45;;;;;;;53.07;24.83;;;;;;;8.02;100.00;98446.00;6039794;23;20227;-75
2024/02/11 00:19:13;;;;;;;47.33;25.20;;;;;;;8.05;100.00;98450.53;6041614;23;20177;-75
2024/02/11 00:21:40;;;;;;;50.03;24.27;;;;;;;8.05;100.00;98453.91;6041585;23;20174;-74
2024/02/11 00:24:07;;;;;;;47.93;25.33;;;;;;;8.08;100.00;98455.81;6040535;23;20174;-75
2024/02/11 00:26:34;;;;;;;43.30;25.63;;;;;;;8.10;100.00;98450.19;6041350;23;20560;-75
2024/02/11 00:29:00;;;;;;;50.20;26.63;;;;;;;8.11;100.00;98460.38;6005564;23;20178;-75
2024/02/11 00:31:26;;;;;;;48.43;26.43;;;;;;;8.13;100.00;98457.38;6007076;23;20181;-75
2024/02/11 00:33:54;;;;;;;58.07;26.70;;;;;;;8.14;100.00;98451.00;6039879;23;20650;-75
2024/02/11 00:36:21;;;;;;;47.80;26.20;;;;;;;8.14;100.00;98445.75;6041315;23;20196;-75
2024/02/11 00:38:48;;;;;;;46.57;25.27;;;;;;;8.16;100.00;98448.75;6040568;23;20176;-75
2024/02/11 00:41:14;;;;;;;46.53;26.27;;;;;;;8.19;100.00;98448.78;6041243;23;20176;-75
2024/02/11 00:43:41;;;;;;;48.73;26.23;;;;;;;8.20;100.00;98446.97;6040437;23;20500;-75
2024/02/11 00:46:08;;;;;;;52.90;26.70;;;;;;;8.20;100.00;98442.47;6005983;23;20177;-75
2024/02/11 00:48:34;;;;;;;50.93;25.80;;;;;;;8.22;100.00;98455.22;6005633;23;20204;-75
2024/02/11 00:51:01;;;;;;;51.20;26.67;;;;;;;8.22;100.00;98450.75;6006501;23;20175;-75
2024/02/11 00:53:28;;;;;;;48.27;26.70;;;;;;;8.24;100.00;98447.75;6040545;23;20193;-75
2024/02/11 00:55:55;;;;;;;49.13;27.27;;;;;;;8.24;100.00;98451.13;6039781;23;20497;-75
2024/02/11 00:58:22;;;;;;;47.53;25.83;;;;;;;8.25;100.00;98446.63;6036850;23;20189;-75
2024/02/11 01:00:49;;;;;;;52.37;28.67;;;;;;;8.25;100.00;98450.03;6040036;23;20249;-75
2024/02/11 01:03:15;;;;;;;50.17;27.30;;;;;;;8.27;100.00;98442.53;6040221;23;20218;-75
2024/02/11 01:05:43;;;;;;;50.03;28.43;;;;;;;8.27;100.00;98439.91;6041391;23;20549;-75
2024/02/11 01:08:09;;;;;;;52.30;26.87;;;;;;;8.27;100.00;98450.41;6036176;23;20272;-75
2024/02/11 01:10:38;;;;;;;49.90;27.97;;;;;;;8.29;100.00;98442.16;6041122;23;20666;-75
2024/02/11 01:13:05;;;;;;;49.57;29.20;;;;;;;8.28;100.00;98430.16;6005202;23;20177;-75
2024/02/11 01:15:31;;;;;;;43.37;25.63;;;;;;;8.29;100.00;98429.75;6006013;23;20201;-75
2024/02/11 01:17:58;;;;;;;61.20;30.00;;;;;;;8.30;100.00;98427.91;6040539;23;20193;-75
2024/02/11 01:20:24;;;;;;;55.63;28.50;;;;;;;8.30;100.00;98427.91;6041358;23;20234;-75
2024/02/11 01:22:50;;;;;;;48.97;27.20;;;;;;;8.30;100.00;98430.53;6039846;23;20232;-75
2024/02/11 01:25:19;;;;;;;52.17;28.07;;;;;;;8.30;100.00;98427.91;6040114;23;20174;-75
2024/02/11 01:27:48;;;;;;;48.13;27.60;;;;;;;8.30;100.00;98426.03;6006004;23;20581;-75
2024/02/11 01:30:15;;;;;;;46.30;27.40;;;;;;;8.31;100.00;98432.03;6040399;23;20249;-75
2024/02/11 01:32:41;;;;;;;52.17;27.60;;;;;;;8.30;100.00;98431.31;6040561;23;20907;-75
2024/02/11 01:35:08;;;;;;;49.23;28.30;;;;;;;8.30;100.00;98430.53;6040271;23;20203;-75
2024/02/11 01:37:40;;;;;;;53.30;27.90;;;;;;;8.30;100.00;98420.00;6040610;23;20691;-75
2024/02/11 01:40:08;;;;;;;52.63;27.60;;;;;;;8.31;100.00;98418.91;6039456;23;20170;-75
2024/02/11 01:42:36;;;;;;;44.77;26.57;;;;;;;8.29;100.00;98416.63;6041057;23;20706;-75
2024/02/11 01:45:04;;;;;;;49.93;28.67;;;;;;;8.28;100.00;98412.47;6040633;23;20174;-75
2024/02/11 01:47:30;;;;;;;48.33;27.17;;;;;;;8.28;100.00;98417.00;6040090;23;20278;-76
2024/02/11 01:49:58;;;;;;;47.17;27.07;;;;;;;8.28;100.00;98423.00;6004992;23;20196;-76
2024/02/11 01:52:29;;;;;;;43.37;25.63;;;;;;;8.28;100.00;98409.13;6040012;23;20179;-75
2024/02/11 01:54:55;;;;;;;45.07;27.00;;;;;;;8.29;100.00;98410.63;6039762;23;20171;-76
2024/02/11 01:57:22;;;;;;;45.57;26.70;;;;;;;8.27;100.00;98416.25;6040950;23;20201;-75
2024/02/11 01:59:48;;;;;;;44.37;26.07;;;;;;;8.26;100.00;98412.09;6005735;23;20560;-75
2024/02/11 02:02:20;;;;;;;49.33;27.30;;;;;;;8.27;100.00;98413.59;6040302;23;20194;-76
2024/02/11 02:04:48;;;;;;;49.43;27.80;;;;;;;8.25;100.00;98413.22;6040306;23;20710;-76
2024/02/11 02:07:14;;;;;;;47.07;27.77;;;;;;;8.24;100.00;98416.94;6038777;23;20661;-75
2024/02/11 02:09:40;;;;;;;49.73;26.20;;;;;;;8.22;100.00;98411.31;6040517;23;20254;-75
2024/02/11 02:12:08;;;;;;;50.17;28.67;;;;;;;8.23;100.00;98409.44;6040422;23;20938;-75
2024/02/11 02:14:35;;;;;;;50.97;28.23;;;;;;;8.22;100.00;98415.78;6006845;23;20181;-75
2024/02/11 02:17:01;;;;;;;47.73;28.77;;;;;;;8.23;100.00;98419.97;6041534;23;20193;-75
2024/02/11 02:19:29;;;;;;;50.97;28.27;;;;;;;8.21;100.00;98411.66;6042313;23;20175;-75
2024/02/11 02:21:56;;;;;;;47.23;27.43;;;;;;;8.21;100.00;98416.91;6041789;23;20224;-75
2024/02/11 02:24:23;;;;;;;46.67;26.53;;;;;;;8.20;100.00;98416.19;6042492;23;20175;-75
2024/02/11 02:26:49;;;;;;;51.97;28.10;;;;;;;8.19;100.00;98406.72;6041104;23;20185;-75
2024/02/11 02:29:16;;;;;;;52.37;27.57;;;;;;;8.19;100.00;98408.63;6042389;23;20203;-75
2024/02/11 02:31:42;;;;;;;50.73;29.60;;;;;;;8.15;100.00;98407.81;6042164;23;20169;-75
2024/02/11 02:34:08;;;;;;;54.90;29.73;;;;;;;8.16;100.00;98406.69;6041321;23;20183;-75
2024/02/11 02:36:36;;;;;;;63.03;33.47;;;;;;;8.14;100.00;98403.69;6041750;23;20182;-75
2024/02/11 02:39:05;;;;;;;72.97;40.60;;;;;;;8.15;100.00;98394.69;6040742;23;20167;-75
2024/02/11 02:41:32;;;;;;;56.53;33.13;;;;;;;8.13;100.00;98397.66;6042627;23;20707;-75
2024/02/11 02:43:58;;;;;;;68.40;38.67;;;;;;;8.11;100.00;98397.28;6041133;23;20178;-75
2024/02/11 02:46:28;;;;;;;56.90;31.67;;;;;;;8.12;100.00;98404.03;6042265;23;20640;-75
2024/02/11 02:48:54;;;;;;;52.37;30.63;;;;;;;8.10;100.00;98395.78;6042393;23;20176;-75
2024/02/11 02:51:21;;;;;;;58.00;32.57;;;;;;;8.12;100.00;98398.03;6042600;23;20173;-75
2024/02/11 02:53:49;;;;;;;60.33;30.57;;;;;;;8.11;100.00;98393.88;6041518;23;20175;-75
2024/02/11 02:56:17;;;;;;;60.47;31.53;;;;;;;8.08;100.00;98395.38;6028740;23;20225;-75
2024/02/11 02:58:43;;;;;;;58.67;30.90;;;;;;;8.10;100.00;98400.25;6006472;23;20181;-75
2024/02/11 03:01:09;;;;;;;57.63;31.87;;;;;;;8.10;100.00;98389.75;6039862;23;20512;-75
2024/02/11 03:03:36;;;;;;;56.23;31.57;;;;;;;8.07;100.00;98382.59;6007024;23;20645;-75
2024/02/11 03:06:02;;;;;;;55.40;31.07;;;;;;;8.08;100.00;98382.22;6040948;23;20531;-75
2024/02/11 03:08:28;;;;;;;59.07;31.63;;;;;;;8.06;100.00;98378.44;6040926;23;20833;-75
2024/02/11 03:10:55;;;;;;;59.70;33.00;;;;;;;8.06;100.00;98386.31;6006672;23;20176;-75
2024/02/11 03:13:22;;;;;;;54.83;30.70;;;;;;;8.05;100.00;98379.56;6041077;23;20166;-75
2024/02/11 03:15:49;;;;;;;57.80;33.47;;;;;;;8.06;100.00;98386.31;6041644;23;20193;-75
2024/02/11 03:18:15;;;;;;;59.73;32.43;;;;;;;8.04;100.00;98378.06;6041440;23;20196;-75
2024/02/11 03:20:41;;;;;;;56.30;31.83;;;;;;;8.03;100.00;98377.28;6041950;23;20512;-74
2024/02/11 03:23:08;;;;;;;55.43;30.63;;;;;;;8.01;100.00;98378.78;6006105;23;20180;-74
2024/02/11 03:25:34;;;;;;;60.23;30.17;;;;;;;8.01;100.00;98370.88;6041502;23;20234;-74
2024/02/11 03:28:00;;;;;;;63.80;31.80;;;;;;;8.00;100.00;98369.38;6040953;23;20189;-74
2024/02/11 03:30:28;;;;;;;61.97;32.67;;;;;;;8.00;100.00;98374.63;6042383;23;20176;-74
2024/02/11 03:32:55;;;;;;;53.23;29.80;;;;;;;7.98;100.00;98371.63;6040808;23;20240;-75
2024/02/11 03:35:21;;;;;;;56.37;30.47;;;;;;;7.97;100.00;98378.75;6041583;23;20169;-75
2024/02/11 03:37:47;;;;;;;61.43;32.97;;;;;;;7.97;100.00;98370.13;6041452;23;20203;-75
2024/02/11 03:40:16;;;;;;;61.80;31.13;;;;;;;7.96;100.00;98371.22;6041177;23;20165;-74
2024/02/11 03:42:42;;;;;;;59.47;31.63;;;;;;;7.94;100.00;98373.44;6042043;23;20172;-75
2024/02/11 03:45:11;;;;;;;55.37;31.00;;;;;;;7.93;100.00;98364.81;6040847;23;20244;-75
2024/02/11 03:47:39;;;;;;;61.77;32.70;;;;;;;7.93;100.00;98369.31;6041415;23;20193;-74
2024/02/11 03:50:07;;;;;;;53.83;29.10;;;;;;;7.90;100.00;98367.41;6040526;23;20169;-75
2024/02/11 03:52:34;;;;;;;63.27;34.17;;;;;;;7.90;100.00;98370.78;6041888;23;20171;-75
2024/02/11 03:55:01;;;;;;;58.70;32.97;;;;;;;7.88;100.00;98370.38;6039897;23;20177;-75
2024/02/11 03:57:27;;;;;;;58.57;31.60;;;;;;;7.86;100.00;98375.25;6006537;23;20206;-75
2024/02/11 03:59:54;;;;;;;58.70;31.70;;;;;;;7.85;100.00;98373.75;6041055;23;20809;-75
2024/02/11 04:02:20;;;;;;;57.40;32.53;;;;;;;7.86;100.00;98379.75;6040979;23;20173;-75
2024/02/11 04:04:49;;;;;;;54.87;31.40;;;;;;;7.85;100.00;98378.22;6041867;23;20179;-75
2024/02/11 04:07:16;;;;;;;53.90;31.87;;;;;;;7.83;100.00;98372.59;6040262;23;20192;-75
2024/02/11 04:09:42;;;;;;;58.40;32.40;;;;;;;7.83;100.00;98381.22;6041856;23;20506;-75
2024/02/11 04:12:10;;;;;;;56.03;31.07;;;;;;;7.81;100.00;98375.56;6005730;23;20181;-75
2024/02/11 04:14:36;;;;;;;57.87;32.83;;;;;;;7.79;100.00;98380.44;6041667;23;20595;-75
2024/02/11 04:17:12;;;;;;;55.53;31.03;;;;;;;7.79;100.00;98382.31;6041158;23;20264;-75
2024/02/11 04:19:38;;;;;;;55.70;31.03;;;;;;;7.78;100.00;98386.06;6040555;23;20174;-75
2024/02/11 04:22:07;;;;;;;56.63;33.17;;;;;;;7.76;100.00;98380.41;6040741;23;20169;-75
2024/02/11 04:24:33;;;;;;;59.23;31.80;;;;;;;7.74;100.00;98378.13;6041736;23;20171;-75
2024/02/11 04:26:59;;;;;;;61.07;31.17;;;;;;;7.72;100.00;98369.09;6006517;23;20203;-75
2024/02/11 04:29:25;;;;;;;63.20;31.53;;;;;;;7.71;100.00;98375.47;6040442;23;20173;-75
2024/02/11 04:31:53;;;;;;;54.40;31.40;;;;;;;7.70;100.00;98377.34;6041451;23;20698;-75
2024/02/11 04:34:21;;;;;;;56.83;31.77;;;;;;;7.69;100.00;98375.84;6040827;23;20645;-75
2024/02/11 04:36:48;;;;;;;65.47;34.97;;;;;;;7.69;100.00;98377.69;6041091;23;20674;-75
2024/02/11 04:39:16;;;;;;;56.23;31.93;;;;;;;7.69;100.00;98380.31;6040156;23;20199;-75
2024/02/11 04:41:43;;;;;;;61.23;32.60;;;;;;;7.69;100.00;98372.44;6041717;23;20248;-75
2024/02/11 04:44:09;;;;;;;59.30;33.40;;;;;;;7.68;100.00;98376.94;6005287;23;20181;-75
2024/02/11 04:46:38;;;;;;;55.53;31.83;;;;;;;7.67;100.00;98378.03;6040842;23;20186;-75
2024/02/11 04:49:04;;;;;;;54.50;31.97;;;;;;;7.68;100.00;98381.44;6005507;23;20208;-75
2024/02/11 04:51:31;;;;;;;58.57;32.23;;;;;;;7.66;100.00;98373.91;6040769;23;20211;-75
2024/02/11 04:53:58;;;;;;;56.33;31.13;;;;;;;7.67;100.00;98370.16;6040356;23;20184;-75
2024/02/11 04:56:27;;;;;;;62.77;35.10;;;;;;;7.66;100.00;98371.28;6005455;23;20199;-75
2024/02/11 04:58:54;;;;;;;57.33;32.07;;;;;;;7.66;100.00;98373.91;6040979;23;20169;-75
2024/02/11 05:01:21;;;;;;;59.03;32.40;;;;;;;7.66;100.00;98370.53;6039138;23;20168;-75
2024/02/11 05:03:47;;;;;;;65.33;33.97;;;;;;;7.65;100.00;98364.53;6041107;23;20179;-75
2024/02/11 05:06:18;;;;;;;60.43;34.77;;;;;;;7.65;100.00;98363.75;6038657;23;20554;-75
2024/02/11 05:08:45;;;;;;;58.63;32.57;;;;;;;7.63;100.00;98366.75;6040774;23;20172;-75
2024/02/11 05:11:11;;;;;;;58.13;31.47;;;;;;;7.62;100.00;98362.59;6040329;23;20172;-75
2024/02/11 05:13:39;;;;;;;58.23;31.87;;;;;;;7.62;100.00;98361.88;6040857;23;20177;-75
2024/02/11 05:16:08;;;;;;;61.87;33.03;;;;;;;7.61;100.00;98368.25;6005835;23;20180;-75
2024/02/11 05:18:36;;;;;;;63.27;34.30;;;;;;;7.58;100.00;98359.19;6041194;23;20191;-75
2024/02/11 05:21:03;;;;;;;55.73;33.60;;;;;;;7.57;100.00;98360.28;6040725;23;20225;-75
2024/02/11 05:23:30;;;;;;;63.70;34.17;;;;;;;7.57;100.00;98357.66;6041317;23;20237;-75
2024/02/11 05:25:57;;;;;;;58.97;33.83;;;;;;;7.58;100.00;98358.44;6006087;23;20180;-75
2024/02/11 05:28:24;;;;;;;61.23;32.53;;;;;;;7.57;100.00;98362.19;6005888;23;20251;-75
2024/02/11 05:30:55;;;;;;;61.13;31.97;;;;;;;7.57;100.00;98356.94;6007502;23;20184;-75
2024/02/11 05:33:22;;;;;;;59.47;32.97;;;;;;;7.56;100.00;98360.69;6040565;23;20628;-75
2024/02/11 05:35:51;;;;;;;61.97;33.60;;;;;;;7.55;100.00;98348.63;6041757;23;20252;-75
2024/02/11 05:38:19;;;;;;;60.33;33.00;;;;;;;7.56;100.00;98352.78;6040032;23;20970;-75
2024/02/11 05:40:48;;;;;;;64.23;34.10;;;;;;;7.55;100.00;98357.28;6007261;23;20168;-75
2024/02/11 05:43:15;;;;;;;66.03;33.50;;;;;;;7.55;100.00;98354.66;6039891;23;20248;-75
2024/02/11 05:45:44;;;;;;;63.97;34.30;;;;;;;7.55;100.00;98348.63;6041725;23;20220;-75
2024/02/11 05:48:13;;;;;;;65.83;34.60;;;;;;;7.55;100.00;98357.28;6041015;23;20193;-75
2024/02/11 05:50:40;;;;;;;68.30;35.33;;;;;;;7.56;100.00;98350.16;6042927;23;20168;-75
2024/02/11 05:53:07;;;;;;;61.93;34.83;;;;;;;7.55;100.00;98349.41;6042496;23;20165;-75
2024/02/11 05:55:35;;;;;;;62.20;33.93;;;;;;;7.54;100.00;98350.53;6042463;23;20180;-75
2024/02/11 05:58:03;;;;;;;65.33;34.17;;;;;;;7.55;100.00;98354.66;6007628;23;20209;-75
2024/02/11 06:00:31;;;;;;;58.70;32.20;;;;;;;7.56;100.00;98344.91;6042426;23;20168;-75
2024/02/11 06:02:58;;;;;;;67.07;35.00;;;;;;;7.56;100.00;98353.53;6041973;23;20189;-75
2024/02/11 06:05:26;;;;;;;66.73;33.80;;;;;;;7.55;100.00;98353.88;6042883;23;20169;-75
2024/02/11 06:07:54;;;;;;;65.13;33.43;;;;;;;7.56;100.00;98352.78;6041566;23;20249;-75
2024/02/11 06:10:23;;;;;;;60.90;35.20;;;;;;;7.55;100.00;98359.91;6042206;23;20235;-75
2024/02/11 06:12:50;;;;;;;60.80;34.03;;;;;;;7.55;100.00;98353.88;6043062;23;20252;-75
2024/02/11 06:15:20;;;;;;;60.00;32.83;;;;;;;7.56;100.00;98358.78;6041927;23;20780;-75
2024/02/11 06:17:47;;;;;;;63.63;34.50;;;;;;;7.56;100.00;98364.03;6007244;23;20197;-75
2024/02/11 06:20:15;;;;;;;66.60;34.90;;;;;;;7.55;100.00;98359.16;6042317;23;20164;-75
2024/02/11 06:22:43;;;;;;;60.73;33.53;;;;;;;7.56;100.00;98368.56;6042493;23;20171;-75
2024/02/11 06:25:11;;;;;;;60.63;34.60;;;;;;;7.57;100.00;98367.44;6042656;23;20168;-75
2024/02/11 06:27:38;;;;;;;58.70;33.67;;;;;;;7.56;100.00;98361.41;6042765;23;20184;-75
2024/02/11 06:30:08;;;;;;;61.17;33.50;;;;;;;7.56;100.00;98371.19;6042026;23;20232;-75
2024/02/11 06:32:36;;;;;;;58.83;34.13;;;;;;;7.57;100.00;98368.16;6042162;23;20715;-75
2024/02/11 06:35:03;;;;;;;65.90;34.63;;;;;;;7.57;100.00;98365.56;6042490;23;20169;-75
2024/02/11 06:37:31;;;;;;;61.37;33.13;;;;;;;7.57;100.00;98368.16;6042376;23;20682;-75
2024/02/11 06:39:59;;;;;;;60.10;32.57;;;;;;;7.57;100.00;98365.56;6042261;23;20169;-75
2024/02/11 06:42:30;;;;;;;65.37;34.73;;;;;;;7.57;100.00;98372.69;6042254;23;20241;-75
2024/02/11 06:44:57;;;;;;;67.07;33.97;;;;;;;7.57;100.00;98370.78;6042639;23;20190;-75
2024/02/11 06:47:23;;;;;;;63.87;33.47;;;;;;;7.58;100.00;98374.19;6002153;23;20201;-75
2024/02/11 06:49:50;;;;;;;56.20;32.20;;;;;;;7.57;100.00;98376.06;6013765;23;20177;-75
2024/02/11 06:52:17;;;;;;;59.73;33.47;;;;;;;7.59;100.00;98370.44;6002511;23;20179;-75
2024/02/11 06:54:43;;;;;;;65.47;34.07;;;;;;;7.60;100.00;98375.34;6003065;23;20176;-75
2024/02/11 06:57:11;;;;;;;57.27;33.27;;;;;;;7.61;100.00;98378.75;6013127;23;20220;-75
2024/02/11 06:59:38;;;;;;;69.00;35.13;;;;;;;7.62;100.00;98378.38;6013219;23;20168;-75
2024/02/11 07:02:06;;;;;;;62.33;33.70;;;;;;;7.64;100.00;98380.63;6001363;23;20519;-75
2024/02/11 07:04:33;;;;;;;60.20;33.23;;;;;;;7.65;100.00;98372.41;6002120;23;20168;-75
2024/02/11 07:07:00;;;;;;;64.67;33.00;;;;;;;7.66;100.00;98370.53;6001923;23;20226;-75
2024/02/11 07:09:26;;;;;;;63.70;34.03;;;;;;;7.68;100.00;98374.31;6013166;23;20198;-75
2024/02/11 07:11:52;;;;;;;61.03;32.67;;;;;;;7.68;100.00;98376.94;6013380;23;20171;-75
2024/02/11 07:14:21;;;;;;;64.70;33.80;;;;;;;7.70;100.00;98379.19;6012942;23;20176;-75
2024/02/11 07:16:49;;;;;;;69.10;34.57;;;;;;;7.71;100.00;98384.09;6013064;23;20245;-75
2024/02/11 07:19:16;;;;;;;60.13;33.13;;;;;;;7.74;100.00;98382.63;6013751;23;20166;-75
2024/02/11 07:21:42;;;;;;;61.93;31.90;;;;;;;7.74;100.00;98382.63;6013000;23;20166;-75
2024/02/11 07:24:09;;;;;;;57.33;31.27;;;;;;;7.76;100.00;98385.66;6013600;23;20175;-75
2024/02/11 07:26:36;;;;;;;62.63;34.33;;;;;;;7.76;100.00;98383.78;6013037;23;20173;-75
2024/02/11 07:29:03;;;;;;;63.13;32.63;;;;;;;7.78;100.00;98394.69;6012939;23;20194;-75
2024/02/11 07:31:33;;;;;;;66.57;34.33;;;;;;;7.79;100.00;98390.94;6013074;23;20178;-75
2024/02/11 07:33:59;;;;;;;65.83;32.57;;;;;;;7.81;100.00;98390.59;6013572;23;20521;-75
2024/02/11 07:36:26;;;;;;;61.37;33.47;;;;;;;7.82;100.00;98390.22;6013546;23;20174;-75
2024/02/11 07:38:53;;;;;;;60.27;32.50;;;;;;;7.83;100.00;98396.97;6013503;23;20958;-75
2024/02/11 07:41:19;;;;;;;62.37;33.27;;;;;;;7.85;100.00;98394.00;6013215;23;20175;-75
2024/02/11 07:43:46;;;;;;;59.53;33.77;;;;;;;7.85;100.00;98400.03;6012637;23;20172;-75
2024/02/11 07:46:13;;;;;;;62.27;33.10;;;;;;;7.86;100.00;98393.66;6014364;23;20169;-75
2024/02/11 07:48:41;;;;;;;59.83;31.43;;;;;;;7.87;100.00;98397.78;6041615;23;20275;-75
2024/02/11 07:51:07;;;;;;;60.60;33.53;;;;;;;7.90;100.00;98394.44;6041739;23;20194;-75
2024/02/11 07:53:34;;;;;;;58.57;31.40;;;;;;;7.90;100.00;98398.94;6005832;23;20193;-75
2024/02/11 07:56:01;;;;;;;59.33;32.17;;;;;;;7.91;100.00;98403.06;6041877;23;20167;-75
2024/02/11 07:58:27;;;;;;;58.83;32.43;;;;;;;7.93;100.00;98393.72;6041083;23;20380;-75
2024/02/11 08:00:54;;;;;;;57.37;32.60;;;;;;;7.95;100.00;98393.34;6042343;23;20176;-75
2024/02/11 08:03:20;;;;;;;68.97;34.73;;;;;;;7.96;100.00;98398.25;6040966;23;20561;-75
2024/02/11 08:05:48;;;;;;;62.43;33.87;;;;;;;7.98;100.00;98401.28;6041510;23;20582;-75
2024/02/11 08:08:14;;;;;;;67.80;36.10;;;;;;;8.00;100.00;98400.91;6040454;23;20189;-75
2024/02/11 08:10:41;;;;;;;66.23;36.07;;;;;;;8.01;100.00;98397.94;6040579;23;20176;-75
2024/02/11 08:13:08;;;;;;;71.17;36.53;;;;;;;8.05;100.00;98400.59;6041542;23;20172;-75
2024/02/11 08:15:35;;;;;;;64.00;35.23;;;;;;;8.06;100.00;98402.88;6040762;23;20172;-75
2024/02/11 08:18:04;;;;;;;63.43;32.97;;;;;;;8.09;100.00;98409.28;6040287;23;20635;-75
2024/02/11 08:20:31;;;;;;;65.97;32.87;;;;;;;8.11;100.00;98405.16;6004743;23;20246;-76
2024/02/11 08:22:59;;;;;;;60.27;34.13;;;;;;;8.14;100.00;98401.06;6040865;23;20762;-75
2024/02/11 08:25:25;;;;;;;78.47;38.00;;;;;;;8.19;100.00;98403.38;6040227;23;20253;-75
2024/02/11 08:27:52;;;;;;;64.70;33.97;;;;;;;8.20;100.00;98399.63;6034905;23;20187;-75
2024/02/11 08:30:21;;;;;;;66.73;35.00;;;;;;;8.22;100.00;98398.16;6040376;23;20163;-75
2024/02/11 08:32:48;;;;;;;65.97;34.17;;;;;;;8.25;100.00;98412.47;6040587;23;20428;-75
2024/02/11 08:35:14;;;;;;;62.67;32.83;;;;;;;8.26;100.00;98411.34;6040267;23;20169;-75
2024/02/11 08:37:41;;;;;;;64.83;36.30;;;;;;;8.28;100.00;98406.50;6040477;23;20248;-75
2024/02/11 08:40:10;;;;;;;65.63;33.80;;;;;;;8.29;100.00;98403.47;6041676;23;20174;-75
2024/02/11 08:42:37;;;;;;;68.87;34.27;;;;;;;8.32;100.00;98407.25;6040920;23;20197;-75
2024/02/11 08:45:04;;;;;;;72.10;36.83;;;;;;;8.33;100.00;98408.78;6040144;23;20178;-75
2024/02/11 08:47:31;;;;;;;66.73;35.50;;;;;;;8.34;100.00;98408.41;6039469;23;20191;-75
2024/02/11 08:49:57;;;;;;;60.30;32.40;;;;;;;8.36;100.00;98408.81;6040833;23;20180;-75
2024/02/11 08:52:24;;;;;;;62.30;32.53;;;;;;;8.37;100.00;98402.44;6030923;23;20545;-75
2024/02/11 08:54:51;;;;;;;66.37;33.67;;;;;;;8.39;100.00;98409.97;6038943;23;20170;-75
2024/02/11 08:57:22;;;;;;;62.87;33.63;;;;;;;8.40;100.00;98408.84;6040147;23;20186;-75
2024/02/11 08:59:48;;;;;;;61.60;32.40;;;;;;;8.42;100.00;98411.84;6005661;23;20213;-75
2024/02/11 09:02:17;;;;;;;51.00;30.10;;;;;;;8.42;100.00;98409.22;6040045;23;20169;-75
2024/02/11 09:04:43;;;;;;;63.93;32.33;;;;;;;8.43;100.00;98411.50;6039148;23;20201;-75
2024/02/11 09:07:12;;;;;;;61.07;32.93;;;;;;;8.45;100.00;98403.97;6040113;23;20194;-75
2024/02/11 09:09:38;;;;;;;62.37;33.00;;;;;;;8.46;100.00;98404.75;6040174;23;20178;-75
2024/02/11 09:12:05;;;;;;;73.03;36.33;;;;;;;8.46;100.00;98412.63;6040602;23;20163;-75
2024/02/11 09:14:36;;;;;;;57.53;29.90;;;;;;;8.48;100.00;98405.13;6040556;23;20170;-75
2024/02/11 09:17:02;;;;;;;59.87;33.87;;;;;;;8.49;100.00;98401.41;6041378;23;20191;-75
2024/02/11 09:19:29;;;;;;;63.63;35.33;;;;;;;8.49;100.00;98406.66;6041586;23;20194;-75
2024/02/11 09:21:57;;;;;;;51.57;30.83;;;;;;;8.50;100.00;98402.91;6040973;23;20242;-75
2024/02/11 09:24:24;;;;;;;55.40;29.60;;;;;;;8.50;100.00;98405.53;6041925;23;20318;-75
2024/02/11 09:26:51;;;;;;;50.60;28.77;;;;;;;8.51;100.00;98410.44;6040054;23;20242;-75
2024/02/11 09:29:18;;;;;;;61.10;35.50;;;;;;;8.51;100.00;98396.53;6041661;23;20167;-75
2024/02/11 09:31:46;;;;;;;53.43;28.70;;;;;;;8.51;100.00;98397.28;6042852;23;20170;-75
2024/02/11 09:34:12;;;;;;;63.73;36.60;;;;;;;8.52;100.00;98406.69;6007927;23;20254;-75
2024/02/11 09:36:39;;;;;;;52.77;31.00;;;;;;;8.53;100.00;98405.56;6042970;23;20201;-75
2024/02/11 09:39:06;;;;;;;55.00;29.33;;;;;;;8.54;100.00;98401.06;6042022;23;20183;-75
2024/02/11 09:41:33;;;;;;;45.33;26.27;;;;;;;8.53;100.00;98402.94;6006731;23;20186;-75
2024/02/11 09:44:02;;;;;;;49.47;27.23;;;;;;;8.54;100.00;98398.44;6007004;23;20513;-75
2024/02/11 09:46:29;;;;;;;53.40;27.77;;;;;;;8.54;100.00;98401.81;6007385;23;20209;-75
2024/02/11 09:48:58;;;;;;;48.00;26.13;;;;;;;8.55;100.00;98402.56;6042455;23;20235;-75
2024/02/11 09:51:29;;;;;;;53.07;27.20;;;;;;;8.55;100.00;98398.06;6041424;23;20170;-75
2024/02/11 09:53:59;;;;;;;56.67;28.30;;;;;;;8.56;100.00;98407.47;6041475;23;20174;-75
2024/02/11 09:56:26;;;;;;;50.47;27.33;;;;;;;8.57;100.00;98405.59;6042656;23;20628;-75
2024/02/11 09:58:52;;;;;;;51.33;27.60;;;;;;;8.58;100.00;98413.13;6040951;23;20263;-75
2024/02/11 10:01:19;;;;;;;49.10;26.33;;;;;;;8.59;100.00;98398.09;6042958;23;20205;-75
2024/02/11 10:03:53;;;;;;;48.70;27.23;;;;;;;8.60;100.00;98400.34;6007340;23;20183;-75
2024/02/11 10:06:27;;;;;;;50.13;27.17;;;;;;;8.61;100.00;98404.53;6040723;23;20500;-75
2024/02/11 10:08:54;;;;;;;49.63;26.47;;;;;;;8.62;100.00;98411.28;6041791;23;20163;-75
2024/02/11 10:11:23;;;;;;;49.50;25.60;;;;;;;8.63;100.00;98404.13;6041803;23;20221;-74
2024/02/11 10:13:50;;;;;;;47.33;26.03;;;;;;;8.66;100.00;98404.19;6041683;23;20177;-75
2024/02/11 10:16:16;;;;;;;87.07;45.13;;;;;;;8.67;100.00;98403.06;6040584;23;20177;-75
2024/02/11 10:18:43;;;;;;;47.03;27.57;;;;;;;8.67;100.00;98394.41;6006269;23;20237;-75
2024/02/11 10:21:12;;;;;;;49.47;25.60;;;;;;;8.68;100.00;98395.91;6038952;23;20180;-75
2024/02/11 10:23:40;;;;;;;47.53;27.60;;;;;;;8.70;100.00;98391.03;6038639;23;20629;-75
2024/02/11 10:26:08;;;;;;;46.50;25.60;;;;;;;8.72;100.00;98392.19;6038940;23;20531;-75
2024/02/11 10:28:37;;;;;;;48.27;26.83;;;;;;;8.73;100.00;98392.94;6042076;23;20183;-75
2024/02/11 10:31:03;;;;;;;51.43;28.13;;;;;;;8.75;100.00;98393.34;6041456;23;20226;-75
2024/02/11 10:33:30;;;;;;;47.93;24.93;;;;;;;8.77;100.00;98391.84;6041251;23;20174;-75
2024/02/11 10:35:57;;;;;;;47.17;25.20;;;;;;;8.78;100.00;98396.00;6040898;23;20172;-75
2024/02/11 10:38:23;;;;;;;48.60;25.60;;;;;;;8.80;100.00;98387.75;6040905;23;20191;-75
2024/02/11 10:40:52;;;;;;;44.87;25.10;;;;;;;8.82;100.00;98393.38;6041919;23;20175;-75
2024/02/11 10:43:24;;;;;;;45.37;25.30;;;;;;;8.83;100.00;98389.63;6041529;23;20250;-75
2024/02/11 10:45:51;;;;;;;58.77;27.23;;;;;;;8.84;100.00;98389.25;6039638;23;20171;-75
2024/02/11 10:48:19;;;;;;;51.53;26.93;;;;;;;8.86;100.00;98386.25;6038675;23;20194;-75
2024/02/11 10:50:50;;;;;;;55.27;25.60;;;;;;;8.87;100.00;98380.66;6038347;23;20173;-75
2024/02/11 10:53:23;;;;;;;44.93;25.47;;;;;;;8.89;100.00;98388.16;6040088;23;20232;-75
2024/02/11 10:55:51;;;;;;;55.70;29.03;;;;;;;8.90;100.00;98379.16;6038028;23;20559;-75
2024/02/11 10:58:22;;;;;;;46.13;26.03;;;;;;;8.92;100.00;98379.53;6037726;23;20183;-75
2024/02/11 11:00:51;;;;;;;53.03;25.53;;;;;;;8.94;100.00;98374.66;6039393;23;20254;-75
2024/02/11 11:03:25;;;;;;;45.40;25.93;;;;;;;8.94;100.00;98375.41;6038646;23;20168;-75
2024/02/11 11:05:52;;;;;;;54.03;27.50;;;;;;;8.96;100.00;98375.78;6039215;23;20170;-75
2024/02/11 11:08:19;;;;;;;50.10;26.23;;;;;;;8.97;100.00;98372.06;6036570;23;20252;-74
2024/02/11 11:10:45;;;;;;;56.47;28.67;;;;;;;9.00;100.00;98367.94;6004239;23;20178;-75
2024/02/11 11:13:16;;;;;;;77.70;35.13;;;;;;;9.02;100.00;98370.94;6002763;23;20176;-74
2024/02/11 11:15:43;;;;;;;58.33;29.13;;;;;;;9.04;100.00;98372.09;6035700;23;20640;-75
2024/02/11 11:18:11;;;;;;;47.20;25.90;;;;;;;9.06;100.00;98363.84;6001936;23;20199;-75